Time;durP1;ratioP1;P1;durP2;ratioP2;P2;SDS_P1;SDS_P2;PMS_P1;PMS_P2;Temp;Humidity;BMP_temperature;BMP_pressure;BME280_temperature;BME280_humidity;BME280_pressure;Samples;Min_cycle;Max_cycle;Signal;HPM_P1;HPM_P2
2021/04/27 00:01:39;;;;;;;13.93;7.18;;;;;;;6.43;58.05;99880.94;5076448;28;20048;-75
2021/04/27 00:04:05;;;;;;;12.93;8.07;;;;;;;6.47;58.58;99874.53;5075300;28;20049;-75
2021/04/27 00:06:31;;;;;;;11.32;7.65;;;;;;;6.54;58.12;99883.06;5062471;28;20052;-76
2021/04/27 00:08:57;;;;;;;13.23;8.93;;;;;;;6.49;57.93;99876.19;5071818;28;20045;-76
2021/04/27 00:11:24;;;;;;;9.52;6.53;;;;;;;6.63;56.66;99870.22;5056308;28;20052;-75
2021/04/27 00:13:50;;;;;;;11.07;7.68;;;;;;;6.71;56.15;99861.84;5071734;28;20059;-76
2021/04/27 00:16:17;;;;;;;15.02;6.90;;;;;;;6.74;55.42;99871.47;5056317;28;20107;-74
2021/04/27 00:18:43;;;;;;;14.65;7.47;;;;;;;6.81;55.74;99864.91;5055992;28;20323;-75
2021/04/27 00:21:09;;;;;;;14.82;6.88;;;;;;;6.82;55.80;99869.31;5054931;28;20072;-76
2021/04/27 00:23:35;;;;;;;11.75;6.32;;;;;;;6.85;55.27;99858.53;5054782;28;20159;-75
2021/04/27 00:26:02;;;;;;;12.15;6.88;;;;;;;6.91;55.02;99867.97;5054752;28;20071;-75
2021/04/27 00:28:28;;;;;;;14.13;6.20;;;;;;;6.94;55.02;99862.50;5056255;28;20049;-74
2021/04/27 00:30:54;;;;;;;13.38;6.40;;;;;;;6.89;54.49;99851.28;5055136;28;20763;-75
2021/04/27 00:33:20;;;;;;;14.45;7.30;;;;;;;6.90;54.45;99858.28;5055898;28;20056;-74
2021/04/27 00:35:47;;;;;;;12.60;6.20;;;;;;;6.89;54.88;99857.44;5054975;28;20049;-75
2021/04/27 00:38:13;;;;;;;15.98;7.03;;;;;;;6.88;54.65;99852.22;5055575;28;20084;-75
2021/04/27 00:40:43;;;;;;;16.13;7.88;;;;;;;6.79;54.97;99853.53;5055440;28;20059;-75
2021/04/27 00:43:09;;;;;;;17.48;7.43;;;;;;;6.92;54.59;99849.31;5054972;28;20357;-75
2021/04/27 00:45:35;;;;;;;13.13;7.65;;;;;;;6.91;54.51;99855.56;5055436;28;20431;-76
2021/04/27 00:48:02;;;;;;;13.27;6.97;;;;;;;6.81;55.25;99849.00;5055675;28;20057;-73
2021/04/27 00:50:34;;;;;;;13.40;7.13;;;;;;;6.81;54.96;99848.16;5055461;28;20470;-75
2021/04/27 00:53:01;;;;;;;13.30;6.60;;;;;;;6.78;54.65;99843.84;5055561;28;20437;-76
2021/04/27 00:55:29;;;;;;;12.77;6.90;;;;;;;6.71;56.01;99845.09;5055407;28;20452;-74
2021/04/27 00:57:55;;;;;;;16.17;6.97;;;;;;;6.58;55.66;99840.41;5055517;28;20381;-75
2021/04/27 01:00:24;;;;;;;15.05;7.47;;;;;;;6.49;55.78;99840.88;5055318;28;20049;-75
2021/04/27 01:02:51;;;;;;;13.00;6.95;;;;;;;6.46;56.64;99843.66;5054271;28;20053;-76
2021/04/27 01:05:21;;;;;;;19.45;7.07;;;;;;;6.37;56.30;99827.28;5058783;28;20044;-75
2021/04/27 01:07:50;;;;;;;20.07;6.83;;;;;;;6.34;56.95;99840.69;5075333;28;20055;-75
2021/04/27 01:10:21;;;;;;;12.05;7.40;;;;;;;6.41;56.89;99829.75;5074139;28;20492;-75
2021/04/27 01:12:54;;;;;;;11.55;7.13;;;;;;;6.36;57.06;99824.69;5075392;28;20056;-75
2021/04/27 01:15:26;;;;;;;9.70;6.90;;;;;;;6.24;57.55;99821.72;5075128;28;20094;-74
2021/04/27 01:17:56;;;;;;;10.35;6.45;;;;;;;6.20;58.06;99829.88;5075139;28;20464;-75
2021/04/27 01:20:37;;;;;;;14.52;7.63;;;;;;;6.16;58.21;99818.56;5073976;28;20342;-75
2021/04/27 01:23:28;;;;;;;14.75;7.68;;;;;;;6.18;58.86;99823.81;5075091;28;20139;-75
2021/04/27 01:26:32;;;;;;;11.32;7.18;;;;;;;6.09;58.52;99820.66;5075347;28;20086;-75
2021/04/27 01:29:00;;;;;;;14.80;7.75;;;;;;;5.96;59.13;99808.91;5062006;28;20049;-75
2021/04/27 01:31:27;;;;;;;12.93;7.53;;;;;;;5.90;59.42;99806.53;5075015;28;20109;-75
2021/04/27 01:33:54;;;;;;;12.93;8.52;;;;;;;5.95;59.06;99804.53;5075336;28;20048;-74
2021/04/27 01:36:20;;;;;;;13.93;8.00;;;;;;;5.88;58.95;99796.00;5075311;28;20049;-75
2021/04/27 01:38:48;;;;;;;12.65;8.43;;;;;;;5.89;59.33;99794.25;5074908;28;20056;-75
2021/04/27 01:41:14;;;;;;;17.77;7.90;;;;;;;5.77;59.19;99788.56;5074949;28;20056;-75
2021/04/27 01:43:41;;;;;;;13.40;7.07;;;;;;;5.79;59.67;99799.97;5076340;28;20052;-75
2021/04/27 01:46:07;;;;;;;12.70;8.05;;;;;;;5.75;59.26;99781.63;5079051;28;20082;-76
2021/04/27 01:48:34;;;;;;;14.18;7.65;;;;;;;5.71;59.52;99786.22;5079265;28;20044;-75
2021/04/27 01:51:01;;;;;;;13.65;8.65;;;;;;;5.77;59.11;99785.09;5077788;28;20505;-74
2021/04/27 01:53:28;;;;;;;19.83;9.13;;;;;;;5.68;59.74;99787.22;5078835;28;20501;-75
2021/04/27 01:55:54;;;;;;;15.15;9.52;;;;;;;5.64;59.34;99783.00;5078685;28;20101;-75
2021/04/27 01:58:20;;;;;;;17.45;9.80;;;;;;;5.60;59.81;99788.53;5078721;28;20114;-76
2021/04/27 02:00:47;;;;;;;22.92;10.30;;;;;;;5.56;59.61;99783.34;5079045;28;20056;-74
2021/04/27 02:03:13;;;;;;;24.63;12.02;;;;;;;5.53;59.90;99777.34;5077639;28;20486;-75
2021/04/27 02:05:39;;;;;;;15.20;9.82;;;;;;;5.45;60.80;99775.03;5071866;28;20052;-76
2021/04/27 02:08:07;;;;;;;17.65;10.82;;;;;;;5.30;61.00;99780.09;5057868;28;20057;-75
2021/04/27 02:10:34;;;;;;;17.20;10.63;;;;;;;5.32;61.53;99777.41;5058451;28;20394;-75
2021/04/27 02:13:07;;;;;;;19.50;10.90;;;;;;;5.28;60.81;99766.09;5058431;28;20053;-75
2021/04/27 02:15:34;;;;;;;18.50;10.68;;;;;;;5.22;60.86;99766.38;5058289;28;20259;-74
2021/04/27 02:18:13;;;;;;;18.08;10.27;;;;;;;5.28;60.77;99778.47;5058430;28;20098;-75
2021/04/27 02:20:40;;;;;;;21.25;11.00;;;;;;;5.19;61.28;99773.59;5058288;28;20434;-75
2021/04/27 02:23:06;;;;;;;22.35;10.73;;;;;;;5.06;61.71;99768.00;5058582;28;20131;-74
2021/04/27 02:25:33;;;;;;;16.45;10.35;;;;;;;5.13;61.30;99765.00;5058545;28;20052;-75
2021/04/27 02:28:01;;;;;;;20.25;10.20;;;;;;;5.15;61.28;99767.59;5057405;28;20110;-75
2021/04/27 02:30:27;;;;;;;17.25;9.55;;;;;;;5.03;61.42;99759.25;5059011;28;20182;-76
2021/04/27 02:32:54;;;;;;;20.15;8.95;;;;;;;5.05;61.67;99769.78;5061083;28;20049;-75
2021/04/27 02:35:22;;;;;;;16.70;8.98;;;;;;;4.97;61.96;99758.69;5058703;28;20060;-75
2021/04/27 02:37:50;;;;;;;15.73;8.68;;;;;;;4.99;61.80;99762.97;5061330;28;20060;-76
2021/04/27 02:40:26;;;;;;;12.07;8.85;;;;;;;5.03;61.40;99774.28;5059316;28;20057;-75
2021/04/27 02:42:58;;;;;;;12.13;8.25;;;;;;;5.00;61.30;99762.06;5058110;28;20445;-76
2021/04/27 02:45:32;;;;;;;15.85;8.75;;;;;;;4.99;61.74;99757.69;5057977;28;20118;-76
2021/04/27 02:48:16;;;;;;;18.38;8.30;;;;;;;4.98;61.24;99750.69;5058559;28;20060;-76
2021/04/27 02:50:49;;;;;;;15.27;8.65;;;;;;;5.01;61.47;99774.34;5058424;28;20049;-76
2021/04/27 02:53:15;;;;;;;17.02;8.45;;;;;;;5.00;61.03;99772.63;5057993;28;20471;-76
2021/04/27 02:55:42;;;;;;;15.45;8.55;;;;;;;4.83;61.68;99756.63;5057614;28;20136;-76
2021/04/27 02:58:09;;;;;;;20.23;8.25;;;;;;;4.92;61.84;99765.94;5057705;28;20060;-75
2021/04/27 03:00:36;;;;;;;19.33;8.98;;;;;;;4.87;62.74;99760.88;5058097;28;20061;-76
2021/04/27 03:03:02;;;;;;;20.20;9.18;;;;;;;4.79;62.85;99755.06;5057807;28;20060;-76
2021/04/27 03:05:29;;;;;;;23.67;9.75;;;;;;;4.66;63.68;99766.16;5063156;28;20080;-75
2021/04/27 03:07:55;;;;;;;18.00;9.27;;;;;;;4.58;63.66;99749.78;5077845;28;20434;-75
2021/04/27 03:10:22;;;;;;;34.08;11.90;;;;;;;4.56;63.54;99759.53;5077944;28;20707;-74
2021/04/27 03:12:48;;;;;;;16.10;8.50;;;;;;;4.50;64.34;99752.75;5077395;28;20079;-74
2021/04/27 03:15:15;;;;;;;17.73;9.13;;;;;;;4.40;64.25;99764.63;5077297;28;20049;-75
2021/04/27 03:17:41;;;;;;;20.27;10.02;;;;;;;4.40;64.74;99762.00;5077649;28;20048;-75
2021/04/27 03:20:10;;;;;;;22.33;8.75;;;;;;;4.34;65.19;99766.59;5077489;28;20079;-76
2021/04/27 03:22:36;;;;;;;14.95;9.20;;;;;;;4.29;64.95;99759.78;5077565;28;20426;-75
2021/04/27 03:25:05;;;;;;;22.27;9.80;;;;;;;4.32;65.71;99751.72;5077116;28;20044;-76
2021/04/27 03:27:31;;;;;;;17.13;8.90;;;;;;;4.15;66.13;99750.63;5077433;28;20052;-76
2021/04/27 03:29:58;;;;;;;16.20;8.60;;;;;;;4.12;66.57;99760.47;5076037;28;20052;-75
2021/04/27 03:32:25;;;;;;;12.68;8.70;;;;;;;4.07;66.28;99753.59;5076909;28;20056;-75
2021/04/27 03:34:51;;;;;;;12.45;8.82;;;;;;;4.10;66.47;99743.84;5077115;28;20056;-75
2021/04/27 03:37:17;;;;;;;18.45;8.50;;;;;;;4.02;66.39;99744.13;5076843;28;20053;-75
2021/04/27 03:39:44;;;;;;;18.25;9.27;;;;;;;4.06;66.53;99748.38;5077129;28;20060;-76
2021/04/27 03:42:10;;;;;;;18.30;8.43;;;;;;;3.84;66.21;99725.50;5075560;28;20056;-75
2021/04/27 03:44:36;;;;;;;15.40;7.72;;;;;;;3.97;66.23;99752.25;5076747;28;20052;-75
2021/04/27 03:47:03;;;;;;;23.95;8.88;;;;;;;3.80;66.69;99739.72;5075819;28;20064;-76
2021/04/27 03:49:30;;;;;;;23.75;8.98;;;;;;;3.76;66.47;99732.88;5077015;28;20091;-76
2021/04/27 03:51:57;;;;;;;15.35;9.07;;;;;;;3.82;66.87;99748.47;5076840;28;20052;-77
2021/04/27 03:54:24;;;;;;;12.68;8.30;;;;;;;3.80;66.79;99745.88;5076800;28;20059;-74
2021/04/27 03:56:50;;;;;;;21.85;8.77;;;;;;;3.78;67.09;99738.94;5076767;28;20101;-74
2021/04/27 03:59:16;;;;;;;19.50;8.45;;;;;;;3.77;67.17;99738.06;5075393;28;20059;-75
2021/04/27 04:01:42;;;;;;;16.17;8.38;;;;;;;3.64;66.89;99713.06;5076601;28;20106;-74
2021/04/27 04:04:09;;;;;;;15.55;8.43;;;;;;;3.87;66.14;99740.34;5076296;28;20052;-74
2021/04/27 04:06:35;;;;;;;14.30;8.02;;;;;;;3.85;65.73;99729.84;5059989;28;20079;-75
2021/04/27 04:09:04;;;;;;;18.05;8.63;;;;;;;3.89;65.53;99735.84;5055502;28;20060;-75
2021/04/27 04:11:32;;;;;;;12.32;7.47;;;;;;;3.93;65.49;99735.66;5056431;28;20071;-74
2021/04/27 04:13:58;;;;;;;19.05;7.68;;;;;;;3.92;65.87;99733.13;5056339;28;20045;-74
2021/04/27 04:16:24;;;;;;;12.80;6.95;;;;;;;3.84;65.43;99725.50;5056455;28;20363;-75
2021/04/27 04:18:50;;;;;;;23.60;7.85;;;;;;;3.99;65.99;99745.16;5055894;28;20088;-74
2021/04/27 04:21:18;;;;;;;16.70;7.25;;;;;;;3.98;65.06;99732.00;5055087;28;20056;-74
2021/04/27 04:23:46;;;;;;;16.48;7.72;;;;;;;4.02;64.92;99739.72;5056184;28;20554;-74
2021/04/27 04:26:12;;;;;;;10.20;6.35;;;;;;;4.07;64.20;99736.88;5055955;28;20049;-74
2021/04/27 04:28:39;;;;;;;16.55;6.53;;;;;;;4.23;63.32;99742.41;5056053;28;20110;-75
2021/04/27 04:31:05;;;;;;;12.50;5.50;;;;;;;4.28;62.35;99740.44;5055006;28;20095;-74
2021/04/27 04:33:31;;;;;;;15.88;6.15;;;;;;;4.33;61.59;99737.59;5056042;28;20049;-74
2021/04/27 04:35:58;;;;;;;13.52;6.72;;;;;;;4.45;61.41;99747.66;5056073;28;20048;-75
2021/04/27 04:38:24;;;;;;;20.15;6.75;;;;;;;4.37;61.25;99731.28;5054634;28;20378;-75
2021/04/27 04:40:51;;;;;;;12.25;6.95;;;;;;;4.48;60.62;99746.66;5055656;28;20060;-76
2021/04/27 04:43:17;;;;;;;13.63;5.05;;;;;;;4.51;61.35;99750.97;5055906;28;20053;-75
2021/04/27 04:45:44;;;;;;;13.05;5.60;;;;;;;4.56;60.86;99764.81;5055905;28;20094;-75
2021/04/27 04:48:11;;;;;;;10.68;6.65;;;;;;;4.49;60.26;99753.66;5054401;28;20430;-74
2021/04/27 04:50:37;;;;;;;9.73;5.55;;;;;;;4.58;60.01;99757.72;5055997;28;20381;-74
2021/04/27 04:53:05;;;;;;;10.93;5.25;;;;;;;4.62;60.15;99757.50;5054587;28;20053;-74
2021/04/27 04:55:33;;;;;;;13.95;5.40;;;;;;;4.61;60.17;99762.84;5055438;28;20091;-74
2021/04/27 04:57:59;;;;;;;9.60;5.28;;;;;;;4.69;58.49;99750.16;5055505;28;20052;-73
2021/04/27 05:00:26;;;;;;;8.13;5.10;;;;;;;4.78;58.62;99754.19;5055343;28;20053;-75
2021/04/27 05:02:52;;;;;;;14.18;5.72;;;;;;;4.91;57.63;99759.81;5054358;28;20056;-76
2021/04/27 05:05:19;;;;;;;11.20;4.75;;;;;;;4.93;57.40;99755.31;5058909;28;20093;-73
2021/04/27 05:07:57;;;;;;;7.57;5.00;;;;;;;5.00;57.35;99759.41;5075692;28;20044;-75
2021/04/27 05:10:23;;;;;;;10.35;4.88;;;;;;;5.03;56.83;99758.41;5075620;28;20090;-74
2021/04/27 05:12:50;;;;;;;12.20;5.43;;;;;;;4.97;57.44;99742.81;5074583;28;20056;-75
2021/04/27 05:15:17;;;;;;;11.68;7.15;;;;;;;5.05;56.59;99751.25;5075086;28;20075;-74
2021/04/27 05:17:46;;;;;;;9.10;4.97;;;;;;;5.11;56.13;99744.81;5075172;28;20188;-74
2021/04/27 05:20:13;;;;;;;12.10;4.82;;;;;;;5.18;56.33;99751.59;5075949;28;20048;-74
2021/04/27 05:22:39;;;;;;;11.60;5.03;;;;;;;5.22;55.35;99745.22;5075304;28;20434;-74
2021/04/27 05:25:06;;;;;;;10.02;4.53;;;;;;;5.28;55.47;99738.75;5075044;28;20047;-74
2021/04/27 05:27:32;;;;;;;10.70;5.00;;;;;;;5.36;54.80;99743.72;5074391;28;20060;-74
2021/04/27 05:29:58;;;;;;;8.82;4.20;;;;;;;5.40;54.44;99734.72;5074984;28;20484;-74
2021/04/27 05:32:24;;;;;;;8.45;4.13;;;;;;;5.50;53.97;99741.28;5075235;28;20048;-75
2021/04/27 05:34:54;;;;;;;9.00;4.45;;;;;;;5.56;53.81;99734.88;5075348;28;20272;-75
2021/04/27 05:37:20;;;;;;;7.50;4.30;;;;;;;5.57;53.35;99740.06;5073993;28;20060;-75
2021/04/27 05:39:46;;;;;;;11.40;4.03;;;;;;;5.67;53.04;99731.69;5075230;28;20362;-75
2021/04/27 05:42:12;;;;;;;9.63;4.55;;;;;;;5.67;53.26;99723.75;5073982;28;20052;-75
2021/04/27 05:44:38;;;;;;;7.25;4.32;;;;;;;5.78;53.03;99733.84;5074993;28;20082;-70
2021/04/27 05:47:05;;;;;;;12.30;4.32;;;;;;;5.79;52.85;99725.81;5073989;28;20063;-76
2021/04/27 05:49:31;;;;;;;7.20;3.70;;;;;;;5.89;52.25;99730.66;5073821;28;20049;-74
2021/04/27 05:51:57;;;;;;;10.23;4.13;;;;;;;5.93;52.71;99726.91;5075433;28;20063;-73
2021/04/27 05:54:24;;;;;;;6.85;4.28;;;;;;;6.03;52.34;99727.34;5075325;28;20319;-75
2021/04/27 05:56:50;;;;;;;8.68;4.07;;;;;;;6.10;52.37;99729.63;5074182;28;20056;-75
2021/04/27 05:59:16;;;;;;;15.95;4.00;;;;;;;6.16;51.54;99730.28;5075615;28;20456;-74
2021/04/27 06:01:42;;;;;;;9.80;4.32;;;;;;;6.19;52.07;99738.94;5075023;28;20076;-73
2021/04/27 06:04:09;;;;;;;6.53;4.20;;;;;;;6.29;51.35;99733.16;5074165;28;20072;-74
2021/04/27 06:06:37;;;;;;;11.45;3.80;;;;;;;6.34;51.52;99732.03;5060936;28;20057;-75
2021/04/27 06:09:06;;;;;;;7.43;3.78;;;;;;;6.39;51.06;99726.47;5054238;28;20338;-77
2021/04/27 06:11:36;;;;;;;6.85;4.15;;;;;;;6.39;50.60;99714.06;5055190;28;20103;-75
2021/04/27 06:14:03;;;;;;;9.43;4.78;;;;;;;6.47;50.80;99715.47;5055139;28;20072;-76
2021/04/27 06:16:30;;;;;;;11.45;4.30;;;;;;;6.55;51.22;99729.22;5054760;28;20045;-78
2021/04/27 06:18:56;;;;;;;7.55;4.00;;;;;;;6.59;51.17;99728.09;5063393;28;20136;-77
2021/04/27 06:21:24;;;;;;;7.45;3.47;;;;;;;6.69;50.04;99725.00;5064899;28;20051;-77
2021/04/27 06:23:51;;;;;;;9.68;4.00;;;;;;;6.76;49.11;99721.06;5056282;28;20114;-78
2021/04/27 06:26:19;;;;;;;7.28;4.03;;;;;;;6.75;49.05;99714.06;5062775;28;20044;-79
2021/04/27 06:28:46;;;;;;;11.18;3.83;;;;;;;6.88;49.48;99723.09;5056703;28;20399;-78
2021/04/27 06:31:12;;;;;;;5.55;3.75;;;;;;;6.83;49.20;99703.91;5061128;28;20049;-78
2021/04/27 06:33:39;;;;;;;6.00;3.22;;;;;;;6.95;49.38;99718.31;5069237;28;20044;-72
2021/04/27 06:36:05;;;;;;;6.13;3.67;;;;;;;6.99;48.48;99703.06;5068700;28;20390;-75
2021/04/27 06:38:32;;;;;;;7.65;3.83;;;;;;;7.08;48.84;99710.53;5062148;28;20450;-77
2021/04/27 06:40:59;;;;;;;10.35;3.45;;;;;;;7.13;48.50;99713.81;5058206;28;20074;-75
2021/04/27 06:43:25;;;;;;;6.43;3.05;;;;;;;7.14;48.49;99710.19;5057915;28;20049;-73
2021/04/27 06:45:51;;;;;;;7.35;3.63;;;;;;;7.12;47.61;99696.16;5057180;28;20060;-79
2021/04/27 06:48:18;;;;;;;7.38;3.78;;;;;;;7.17;48.15;99698.56;5059614;28;20053;-75
2021/04/27 06:50:45;;;;;;;8.15;3.60;;;;;;;7.37;46.97;99710.75;5066033;28;20055;-78
2021/04/27 06:53:17;;;;;;;7.30;3.35;;;;;;;7.42;47.19;99713.16;5057105;28;20307;-80
2021/04/27 06:55:44;;;;;;;7.40;3.38;;;;;;;7.50;46.95;99710.06;5063306;28;20045;-77
2021/04/27 06:58:11;;;;;;;5.95;3.13;;;;;;;7.56;47.54;99713.25;5068862;28;20045;-76
2021/04/27 07:00:38;;;;;;;8.13;3.03;;;;;;;7.58;47.32;99715.81;5067414;28;20049;-76
2021/04/27 07:03:08;;;;;;;6.55;3.42;;;;;;;7.72;45.88;99715.03;5065720;28;20040;-80
2021/04/27 07:05:36;;;;;;;8.55;3.60;;;;;;;7.80;45.26;99707.47;5063328;28;20056;-77
2021/04/27 07:08:04;;;;;;;5.07;2.88;;;;;;;7.90;45.50;99704.31;5066417;28;20128;-78
2021/04/27 07:10:31;;;;;;;8.23;3.08;;;;;;;7.98;45.82;99702.94;5066188;28;20049;-78
2021/04/27 07:12:57;;;;;;;8.63;3.40;;;;;;;8.01;45.67;99693.94;5058259;28;20450;-76
2021/04/27 07:15:24;;;;;;;5.00;3.35;;;;;;;8.15;45.61;99706.41;5058730;28;20094;-77
2021/04/27 07:17:51;;;;;;;8.90;3.08;;;;;;;8.14;45.39;99694.06;5065978;28;20045;-81
2021/04/27 07:20:21;;;;;;;4.07;2.60;;;;;;;8.24;44.47;99689.91;5068098;28;20059;-77
2021/04/27 07:23:29;;;;;;;10.10;3.75;;;;;;;8.33;43.99;99693.00;5078841;28;20068;-77
2021/04/27 07:26:12;;;;;;;8.73;3.28;;;;;;;8.28;44.08;99677.28;5062281;28;20051;-78
2021/04/27 07:28:39;;;;;;;6.10;2.97;;;;;;;8.47;44.34;99692.16;5055163;28;20052;-78
2021/04/27 07:31:06;;;;;;;4.22;3.17;;;;;;;8.46;44.04;99683.34;5059992;28;20103;-79
2021/04/27 07:33:33;;;;;;;5.65;2.97;;;;;;;8.61;44.08;99696.69;5062401;28;20098;-77
2021/04/27 07:36:00;;;;;;;4.90;3.17;;;;;;;8.61;43.49;99692.22;5056825;28;20041;-77
2021/04/27 07:38:26;;;;;;;7.10;2.75;;;;;;;8.67;43.96;99683.84;5061809;28;20059;-77
2021/04/27 07:40:52;;;;;;;8.32;2.95;;;;;;;8.73;44.42;99684.44;5054155;28;20126;-75
2021/04/27 07:43:19;;;;;;;6.60;3.50;;;;;;;8.81;43.14;99682.16;5063129;28;20066;-77
2021/04/27 07:45:46;;;;;;;5.85;3.05;;;;;;;8.86;44.21;99685.41;5062055;28;20159;-78
2021/04/27 07:48:12;;;;;;;6.18;2.97;;;;;;;8.88;44.03;99693.28;5065424;28;20049;-78
2021/04/27 07:50:39;;;;;;;10.75;3.20;;;;;;;8.97;44.23;99674.09;5066094;28;20055;-79
2021/04/27 07:53:08;;;;;;;8.98;3.22;;;;;;;9.14;44.08;99688.16;5055211;28;20084;-80
2021/04/27 07:55:36;;;;;;;6.00;3.60;;;;;;;9.27;42.87;99686.44;5039947;28;20449;-78
2021/04/27 07:58:04;;;;;;;6.90;3.47;;;;;;;9.30;43.51;99688.03;5066671;28;20052;-77
2021/04/27 08:00:30;;;;;;;6.80;4.70;;;;;;;9.30;43.22;99682.69;5067457;28;20438;-74
2021/04/27 08:02:58;;;;;;;14.68;3.38;;;;;;;9.33;43.39;99690.50;5065908;28;20049;-77
2021/04/27 08:05:26;;;;;;;12.18;3.60;;;;;;;9.36;44.17;99685.84;5058906;28;20132;-76
2021/04/27 08:07:52;;;;;;;5.28;3.10;;;;;;;9.57;43.22;99687.22;5054957;28;20045;-76
2021/04/27 08:10:19;;;;;;;10.95;3.53;;;;;;;9.64;43.50;99665.41;5067161;28;20503;-77
2021/04/27 08:12:48;;;;;;;4.28;2.85;;;;;;;9.84;43.24;99675.72;5066347;28;20128;-73
2021/04/27 08:15:19;;;;;;;10.40;3.58;;;;;;;9.98;41.91;99674.81;5067280;28;20044;-76
2021/04/27 08:17:47;;;;;;;5.88;2.90;;;;;;;10.04;42.69;99671.75;5057973;28;20060;-76
2021/04/27 08:20:18;;;;;;;;;;;;;;;10.10;41.76;99678.47;5056269;28;20048;-76
2021/04/27 08:22:46;;;;;;;9.32;3.10;;;;;;;10.10;42.08;99678.47;5063230;28;19924;-78
2021/04/27 08:25:15;;;;;;;7.00;2.90;;;;;;;10.15;42.23;99677.19;5063622;28;20110;-78
2021/04/27 08:27:45;;;;;;;7.97;3.20;;;;;;;10.21;42.23;99672.41;5067476;28;20045;-80
2021/04/27 08:30:15;;;;;;;;;;;;;;;10.21;41.11;99673.28;5060380;28;20064;-80
2021/04/27 08:32:45;;;;;;;5.35;3.47;;;;;;;10.40;41.09;99658.69;5046906;28;20256;-76
2021/04/27 08:35:12;;;;;;;7.25;3.08;;;;;;;10.46;41.78;99674.28;5067296;28;20049;-78
2021/04/27 08:37:41;;;;;;;7.32;3.13;;;;;;;10.59;40.61;99666.31;5067066;28;20056;-80
2021/04/27 08:40:11;;;;;;;5.03;3.35;;;;;;;10.65;41.24;99671.22;5066608;28;20389;-77
2021/04/27 08:42:38;;;;;;;6.65;3.10;;;;;;;10.81;40.57;99660.34;5065954;28;20098;-75
2021/04/27 08:45:09;;;;;;;7.30;3.67;;;;;;;10.93;40.09;99663.09;5063832;28;20044;-76
2021/04/27 08:47:36;;;;;;;16.42;3.65;;;;;;;10.95;42.29;99656.69;5057154;28;20048;-77
2021/04/27 08:50:07;;;;;;;7.70;3.67;;;;;;;11.08;42.22;99655.81;5059377;28;20045;-76
2021/04/27 08:52:33;;;;;;;6.95;3.35;;;;;;;11.18;41.05;99662.22;5063833;28;20052;-75
2021/04/27 08:54:59;;;;;;;9.23;3.50;;;;;;;11.21;40.97;99661.09;5065599;28;20045;-79
2021/04/27 08:57:26;;;;;;;6.90;3.28;;;;;;;11.31;39.62;99656.81;5068662;28;20048;-81
2021/04/27 08:59:52;;;;;;;9.50;4.15;;;;;;;11.39;40.17;99653.63;5140265;23;20089;-78
2021/04/27 09:02:29;;;;;;;9.90;4.20;;;;;;;11.39;41.07;99638.41;5115280;23;20049;-78
2021/04/27 09:04:56;;;;;;;8.88;3.25;;;;;;;11.55;39.40;99651.50;5005342;28;20138;-75
2021/04/27 09:07:29;;;;;;;5.50;3.28;;;;;;;11.64;38.20;99649.13;5039123;28;20413;-80
2021/04/27 09:09:59;;;;;;;10.30;4.00;;;;;;;11.65;39.46;99648.16;5038606;28;20045;-78
2021/04/27 09:12:27;;;;;;;10.20;3.30;;;;;;;11.72;39.96;99644.06;5022982;28;20056;-77
2021/04/27 09:14:59;;;;;;;6.85;2.92;;;;;;;11.80;39.16;99646.16;5026653;28;20507;-73
2021/04/27 09:17:28;;;;;;;5.82;3.10;;;;;;;11.98;37.57;99651.94;5027299;28;20044;-74
2021/04/27 09:19:58;;;;;;;7.65;3.40;;;;;;;11.98;38.30;99638.56;5044443;28;20053;-80
2021/04/27 09:22:30;;;;;;;7.60;4.13;;;;;;;12.09;40.34;99638.66;5044474;28;20055;-76
2021/04/27 09:25:02;;;;;;;10.10;3.67;;;;;;;12.22;40.44;99643.09;5044027;28;20318;-79
2021/04/27 09:27:39;;;;;;;10.98;3.40;;;;;;;12.33;39.95;99647.59;5034153;28;20368;-76
2021/04/27 09:30:14;;;;;;;8.55;3.67;;;;;;;12.48;40.75;99643.75;5040816;28;20076;-72
2021/04/27 09:33:06;;;;;;;9.32;3.40;;;;;;;12.71;37.73;99640.25;5043926;28;20049;-78
2021/04/27 09:35:46;;;;;;;11.20;3.45;;;;;;;12.77;38.16;99639.78;5042081;28;20433;-76
2021/04/27 09:38:15;;;;;;;8.55;3.00;;;;;;;12.83;37.38;99639.28;5036389;28;20051;-75
2021/04/27 09:40:53;;;;;;;4.85;2.97;;;;;;;12.94;34.92;99634.88;5043075;28;20056;-76
2021/04/27 09:43:23;;;;;;;5.00;3.13;;;;;;;12.93;35.82;99622.47;5044711;28;20492;-76
2021/04/27 09:45:52;;;;;;;6.70;3.10;;;;;;;13.16;36.44;99623.31;5023091;28;20322;-74
2021/04/27 09:48:34;;;;;;;8.88;3.47;;;;;;;13.28;36.51;99613.41;5045724;28;20053;-72
2021/04/27 09:51:33;;;;;;;9.23;2.92;;;;;;;13.31;36.82;99626.59;5040962;28;20061;-75
2021/04/27 09:54:11;;;;;;;8.32;2.85;;;;;;;13.40;35.45;99622.31;5027108;28;20418;-79
2021/04/27 09:56:42;;;;;;;8.32;2.92;;;;;;;13.56;32.76;99613.88;5043583;28;20072;-75
2021/04/27 09:59:25;;;;;;;9.00;3.28;;;;;;;13.60;32.22;99603.75;5040868;28;20046;-82
2021/04/27 10:01:54;;;;;;;7.13;3.25;;;;;;;13.67;35.30;99611.16;5032866;28;20064;-78
2021/04/27 10:04:22;;;;;;;9.40;2.90;;;;;;;13.76;35.25;99600.63;5047199;28;20759;-78
2021/04/27 10:06:50;;;;;;;8.75;3.38;;;;;;;13.78;34.28;99609.44;5068753;28;20041;-76
2021/04/27 10:09:21;;;;;;;8.85;3.03;;;;;;;13.94;32.56;99598.25;5056397;28;20075;-76
2021/04/27 10:11:49;;;;;;;7.95;2.72;;;;;;;14.01;34.38;99602.13;5064128;28;20048;-76
2021/04/27 10:14:16;;;;;;;9.48;2.55;;;;;;;14.03;33.86;99599.28;5069037;28;20131;-76
2021/04/27 10:16:42;;;;;;;4.65;2.40;;;;;;;14.20;33.97;99587.97;5078422;28;20083;-75
2021/04/27 10:19:09;;;;;;;5.70;2.67;;;;;;;14.24;32.79;99599.31;5059772;28;20375;-71
2021/04/27 10:21:37;;;;;;;7.25;2.92;;;;;;;14.31;32.03;99594.25;5076461;28;20045;-73
2021/04/27 10:24:24;;;;;;;6.85;2.95;;;;;;;14.33;32.86;99584.25;5077493;28;20379;-72
2021/04/27 10:26:51;;;;;;;5.47;2.67;;;;;;;14.41;32.51;99584.44;5078757;28;20059;-72
2021/04/27 10:29:21;;;;;;;6.30;3.00;;;;;;;14.59;32.83;99581.97;5079992;28;20055;-71
2021/04/27 10:32:08;;;;;;;10.13;2.85;;;;;;;14.66;31.61;99582.31;5081632;28;20067;-72
2021/04/27 10:34:34;;;;;;;11.02;2.75;;;;;;;14.79;31.89;99569.53;5081448;28;20060;-72
2021/04/27 10:37:19;;;;;;;6.57;2.47;;;;;;;14.90;31.45;99570.38;5063531;28;20067;-70
2021/04/27 10:39:47;;;;;;;8.35;2.80;;;;;;;14.93;30.60;99573.66;5079737;28;20083;-71
2021/04/27 10:42:21;;;;;;;5.25;2.80;;;;;;;15.09;30.04;99566.91;5060402;28;20053;-71
2021/04/27 10:45:03;;;;;;;8.13;2.72;;;;;;;15.25;30.17;99558.31;5078350;28;20052;-71
2021/04/27 10:47:43;;;;;;;14.10;3.15;;;;;;;15.26;30.18;99549.25;5077792;28;20102;-71
2021/04/27 10:50:25;;;;;;;8.73;3.17;;;;;;;15.23;30.22;99554.91;5060521;28;20053;-71
2021/04/27 10:52:52;;;;;;;12.77;3.35;;;;;;;15.19;30.56;99554.34;5078101;28;20356;-72
2021/04/27 10:55:27;;;;;;;9.82;3.17;;;;;;;15.30;29.74;99536.38;5078146;28;20127;-72
2021/04/27 10:58:02;;;;;;;7.60;3.47;;;;;;;15.38;29.46;99531.16;5077743;28;20058;-71
2021/04/27 11:00:48;;;;;;;13.07;3.38;;;;;;;15.66;29.21;99535.81;5063207;28;20134;-72
2021/04/27 11:03:25;;;;;;;9.80;3.22;;;;;;;15.74;30.19;99536.81;5077544;28;20095;-71
2021/04/27 11:06:08;;;;;;;27.33;3.22;;;;;;;15.65;28.66;99526.06;5048090;28;20131;-72
2021/04/27 11:09:12;;;;;;;8.52;3.47;;;;;;;15.94;29.20;99536.84;5077499;28;20144;-71
2021/04/27 11:11:39;;;;;;;7.32;3.25;;;;;;;16.03;27.58;99532.44;5029097;28;20432;-71
2021/04/27 11:14:12;;;;;;;4.63;3.13;;;;;;;16.02;25.71;99541.50;5066672;28;20392;-70
2021/04/27 11:16:43;;;;;;;8.00;3.08;;;;;;;15.94;26.31;99530.59;5057314;28;20055;-71
2021/04/27 11:19:23;;;;;;;8.57;3.38;;;;;;;16.18;27.84;99535.50;5057584;28;20096;-72
2021/04/27 11:21:54;;;;;;;7.18;3.33;;;;;;;16.18;26.06;99527.41;5057623;28;20380;-71
2021/04/27 11:24:35;;;;;;;5.22;3.10;;;;;;;16.01;25.65;99520.94;5057089;28;20072;-71
2021/04/27 11:27:02;;;;;;;5.22;3.45;;;;;;;15.91;25.73;99517.41;5056916;28;20120;-71
2021/04/27 11:29:30;;;;;;;8.00;2.90;;;;;;;16.38;27.23;99509.38;5056792;28;20056;-71
2021/04/27 11:32:15;;;;;;;5.05;3.38;;;;;;;16.70;26.87;99518.88;5057176;28;20452;-71
2021/04/27 11:34:49;;;;;;;7.63;3.38;;;;;;;16.58;26.97;99511.13;5056938;28;20060;-72
2021/04/27 11:37:21;;;;;;;6.97;3.30;;;;;;;16.68;27.98;99509.25;5056864;28;20099;-71
2021/04/27 11:39:48;;;;;;;13.02;3.80;;;;;;;16.75;26.72;99512.19;5056946;28;20053;-71
2021/04/27 11:42:22;;;;;;;7.45;3.28;;;;;;;16.46;27.65;99513.16;5039369;28;20049;-71
2021/04/27 11:44:55;;;;;;;6.30;4.03;;;;;;;16.73;27.30;99506.09;5056746;28;20057;-71